KOA185 YSSY-YMML
Flight info
| Callsign | KOA185 |
|---|---|
| Flight time | 1h 4m |
| Altitude | 38000 |
| Route | GROOK1 WOL H65 LEECE Q29 ML DCT |
| Aircraft | A20N/M-SDE2E3FGHIJ1RWXY/LB1 |
Departure
| Time | 2026-04-23 09:15 |
|---|---|
| Airport | Sydney Kingsford Smith International Airport (YSSY) |
Arrival
| Time | 2026-04-23 10:19 |
|---|---|
| Airport | Melbourne Airport (YMML) |
| Time | Latitude | Longitude | Altitude | Speed | Heading |
|---|---|---|---|---|---|
| 2026-04-23 09:03 | -33.93130 | 151.17756 | 30 ft | 0 kts | 189° |
| 2026-04-23 09:09 | -33.93120 | 151.17758 | 31 ft | 2 kts | 190° |
| 2026-04-23 09:10 | -33.93106 | 151.17761 | 31 ft | 2 kts | 193° |
| 2026-04-23 09:10 | -33.93074 | 151.17773 | 30 ft | 2 kts | 211° |
| 2026-04-23 09:10 | -33.93063 | 151.17787 | 30 ft | 2 kts | 256° |
| 2026-04-23 09:11 | -33.93062 | 151.17801 | 30 ft | 1 kts | 278° |
| 2026-04-23 09:11 | -33.93062 | 151.17803 | 30 ft | 0 kts | 278° |
| 2026-04-23 09:11 | -33.93061 | 151.17794 | 30 ft | 2 kts | 279° |
| 2026-04-23 09:11 | -33.93056 | 151.17760 | 30 ft | 8 kts | 279° |
| 2026-04-23 09:12 | -33.93046 | 151.17704 | 30 ft | 0 kts | 284° |
| 2026-04-23 09:13 | -33.93045 | 151.17701 | 30 ft | 3 kts | 285° |
| 2026-04-23 09:13 | -33.93017 | 151.17638 | 49 ft | 15 kts | 295° |
| 2026-04-23 09:13 | -33.92984 | 151.17462 | 28 ft | 28 kts | 279° |
| 2026-04-23 09:13 | -33.92952 | 151.17277 | 20 ft | 0 kts | 276° |
| 2026-04-23 09:14 | -33.92952 | 151.17272 | 20 ft | 3 kts | 275° |
| 2026-04-23 09:14 | -33.92965 | 151.17206 | 21 ft | 14 kts | 234° |
| 2026-04-23 09:14 | -33.93091 | 151.17198 | 22 ft | 34 kts | 168° |
| 2026-04-23 09:15 | -33.93631 | 151.17340 | 15 ft | 121 kts | 167° |
| 2026-04-23 09:15 | -33.94624 | 151.17589 | 376 ft | 157 kts | 169° |
| 2026-04-23 09:15 | -33.95727 | 151.17649 | 1340 ft | 161 kts | 177° |
| 2026-04-23 09:15 | -33.96853 | 151.17630 | 2283 ft | 166 kts | 178° |
| 2026-04-23 09:16 | -33.98068 | 151.17600 | 2895 ft | 184 kts | 178° |
| 2026-04-23 09:16 | -33.99439 | 151.17570 | 3445 ft | 209 kts | 178° |
| 2026-04-23 09:16 | -34.00967 | 151.17540 | 4104 ft | 231 kts | 178° |
| 2026-04-23 09:16 | -34.02646 | 151.17601 | 4768 ft | 251 kts | 171° |
| 2026-04-23 09:17 | -34.04386 | 151.18059 | 5645 ft | 259 kts | 162° |
| 2026-04-23 09:17 | -34.06131 | 151.18658 | 6701 ft | 263 kts | 162° |
| 2026-04-23 09:17 | -34.07910 | 151.19255 | 7673 ft | 268 kts | 163° |
| 2026-04-23 09:17 | -34.09717 | 151.19856 | 8689 ft | 270 kts | 163° |
| 2026-04-23 09:18 | -34.11540 | 151.20461 | 9726 ft | 273 kts | 163° |
| 2026-04-23 09:18 | -34.13388 | 151.21076 | 10667 ft | 279 kts | 163° |
| 2026-04-23 09:18 | -34.15330 | 151.21724 | 11186 ft | 300 kts | 163° |
| 2026-04-23 09:18 | -34.17375 | 151.22358 | 11969 ft | 307 kts | 170° |
| 2026-04-23 09:19 | -34.19515 | 151.22272 | 12911 ft | 314 kts | 191° |
| 2026-04-23 09:19 | -34.21525 | 151.21169 | 13781 ft | 325 kts | 213° |
| 2026-04-23 09:19 | -34.23146 | 151.19223 | 14615 ft | 333 kts | 225° |
| 2026-04-23 09:19 | -34.24658 | 151.17084 | 15433 ft | 336 kts | 226° |
| 2026-04-23 09:20 | -34.26170 | 151.14915 | 16252 ft | 339 kts | 226° |
| 2026-04-23 09:20 | -34.27702 | 151.12724 | 17053 ft | 342 kts | 226° |
| 2026-04-23 09:20 | -34.29251 | 151.10521 | 17854 ft | 346 kts | 226° |
| 2026-04-23 09:20 | -34.30818 | 151.08303 | 18640 ft | 349 kts | 226° |
| 2026-04-23 09:21 | -34.32407 | 151.06058 | 19327 ft | 352 kts | 226° |
| 2026-04-23 09:21 | -34.34008 | 151.03800 | 20000 ft | 355 kts | 226° |
| 2026-04-23 09:21 | -34.35616 | 151.01531 | 20716 ft | 357 kts | 227° |
| 2026-04-23 09:21 | -34.37268 | 150.99271 | 21369 ft | 359 kts | 223° |
| 2026-04-23 09:22 | -34.39114 | 150.97220 | 21936 ft | 365 kts | 219° |
| 2026-04-23 09:22 | -34.41056 | 150.95133 | 22112 ft | 381 kts | 219° |
| 2026-04-23 09:22 | -34.43065 | 150.92959 | 22486 ft | 391 kts | 220° |
| 2026-04-23 09:22 | -34.45097 | 150.90752 | 23137 ft | 393 kts | 220° |
| 2026-04-23 09:23 | -34.47142 | 150.88528 | 23763 ft | 397 kts | 220° |
| 2026-04-23 09:23 | -34.49205 | 150.86285 | 24319 ft | 400 kts | 220° |
| 2026-04-23 09:23 | -34.51283 | 150.84023 | 24807 ft | 404 kts | 220° |
| 2026-04-23 09:23 | -34.53380 | 150.81728 | 25308 ft | 407 kts | 222° |
| 2026-04-23 09:24 | -34.55324 | 150.79227 | 25516 ft | 420 kts | 229° |
| 2026-04-23 09:24 | -34.57071 | 150.76319 | 25637 ft | 434 kts | 236° |
| 2026-04-23 09:24 | -34.58593 | 150.73096 | 25756 ft | 446 kts | 239° |
| 2026-04-23 09:24 | -34.60120 | 150.69774 | 25872 ft | 456 kts | 239° |
| 2026-04-23 09:25 | -34.61713 | 150.66329 | 25979 ft | 466 kts | 239° |
| 2026-04-23 09:25 | -34.63293 | 150.62917 | 26082 ft | 475 kts | 239° |
| 2026-04-23 09:25 | -34.64923 | 150.59393 | 26175 ft | 482 kts | 239° |
| 2026-04-23 09:25 | -34.66568 | 150.55828 | 26343 ft | 484 kts | 239° |
| 2026-04-23 09:26 | -34.68214 | 150.52254 | 26554 ft | 485 kts | 239° |
| 2026-04-23 09:26 | -34.69861 | 150.48675 | 26790 ft | 485 kts | 239° |
| 2026-04-23 09:26 | -34.71507 | 150.45095 | 27039 ft | 485 kts | 239° |
| 2026-04-23 09:26 | -34.73151 | 150.41518 | 27301 ft | 484 kts | 239° |
| 2026-04-23 09:27 | -34.74791 | 150.37943 | 27571 ft | 484 kts | 239° |
| 2026-04-23 09:27 | -34.76425 | 150.34377 | 27830 ft | 483 kts | 239° |
| 2026-04-23 09:27 | -34.78059 | 150.30810 | 28079 ft | 482 kts | 239° |
| 2026-04-23 09:27 | -34.79692 | 150.27241 | 28321 ft | 482 kts | 240° |
| 2026-04-23 09:28 | -34.81319 | 150.23681 | 28553 ft | 482 kts | 240° |
| 2026-04-23 09:28 | -34.82945 | 150.20118 | 28797 ft | 481 kts | 240° |
| 2026-04-23 09:28 | -34.84568 | 150.16559 | 29041 ft | 480 kts | 240° |
| 2026-04-23 09:28 | -34.86185 | 150.13008 | 29330 ft | 479 kts | 240° |
| 2026-04-23 09:29 | -34.87795 | 150.09470 | 29567 ft | 478 kts | 240° |
| 2026-04-23 09:29 | -34.89408 | 150.05922 | 29806 ft | 478 kts | 240° |
| 2026-04-23 09:29 | -34.91014 | 150.02387 | 30046 ft | 477 kts | 240° |
| 2026-04-23 09:29 | -34.92617 | 149.98854 | 30292 ft | 477 kts | 240° |
| 2026-04-23 09:30 | -34.94220 | 149.95316 | 30556 ft | 476 kts | 240° |
| 2026-04-23 09:30 | -34.95816 | 149.91791 | 30802 ft | 475 kts | 239° |
| 2026-04-23 09:30 | -34.97407 | 149.88272 | 31053 ft | 474 kts | 239° |
| 2026-04-23 09:30 | -34.98987 | 149.84772 | 31461 ft | 469 kts | 239° |
| 2026-04-23 09:31 | -35.00551 | 149.81303 | 31743 ft | 468 kts | 238° |
| 2026-04-23 09:31 | -35.02121 | 149.77822 | 32003 ft | 467 kts | 238° |
| 2026-04-23 09:31 | -35.03683 | 149.74353 | 32261 ft | 466 kts | 238° |
| 2026-04-23 09:31 | -35.05243 | 149.70887 | 32516 ft | 465 kts | 238° |
| 2026-04-23 09:32 | -35.06798 | 149.67427 | 32772 ft | 465 kts | 238° |
| 2026-04-23 09:32 | -35.08347 | 149.63975 | 33036 ft | 463 kts | 238° |
| 2026-04-23 09:32 | -35.09370 | 149.61692 | 33209 ft | 463 kts | 238° |
| 2026-04-23 09:32 | -35.10913 | 149.58246 | 33489 ft | 461 kts | 237° |
| 2026-04-23 09:33 | -35.12442 | 149.54822 | 33804 ft | 458 kts | 237° |
| 2026-04-23 09:33 | -35.13970 | 149.51404 | 34033 ft | 458 kts | 237° |
| 2026-04-23 09:33 | -35.15496 | 149.47991 | 34256 ft | 457 kts | 237° |
| 2026-04-23 09:33 | -35.17020 | 149.44580 | 34462 ft | 457 kts | 237° |
| 2026-04-23 09:34 | -35.18539 | 149.41176 | 34652 ft | 456 kts | 237° |
| 2026-04-23 09:34 | -35.20059 | 149.37766 | 34837 ft | 456 kts | 237° |
| 2026-04-23 09:34 | -35.21574 | 149.34363 | 34988 ft | 456 kts | 237° |
| 2026-04-23 09:34 | -35.23090 | 149.30955 | 35149 ft | 456 kts | 237° |
| 2026-04-23 09:35 | -35.24606 | 149.27544 | 35324 ft | 456 kts | 237° |
| 2026-04-23 09:35 | -35.26115 | 149.24143 | 35493 ft | 455 kts | 237° |
| 2026-04-23 09:35 | -35.27648 | 149.20750 | 35660 ft | 454 kts | 234° |
| 2026-04-23 09:35 | -35.29409 | 149.17576 | 35813 ft | 449 kts | 228° |
| 2026-04-23 09:36 | -35.31343 | 149.14575 | 35973 ft | 449 kts | 227° |
| 2026-04-23 09:36 | -35.33267 | 149.11576 | 36120 ft | 448 kts | 227° |
| 2026-04-23 09:36 | -35.35193 | 149.08566 | 36265 ft | 448 kts | 227° |
| 2026-04-23 09:36 | -35.37113 | 149.05563 | 36434 ft | 448 kts | 227° |
| 2026-04-23 09:37 | -35.39034 | 149.02556 | 36598 ft | 447 kts | 227° |
| 2026-04-23 09:37 | -35.40944 | 148.99566 | 36794 ft | 445 kts | 227° |
| 2026-04-23 09:37 | -35.42855 | 148.96573 | 36920 ft | 445 kts | 227° |
| 2026-04-23 09:37 | -35.44761 | 148.93585 | 37036 ft | 446 kts | 227° |
| 2026-04-23 09:38 | -35.46671 | 148.90589 | 37166 ft | 445 kts | 227° |
| 2026-04-23 09:38 | -35.48577 | 148.87595 | 37299 ft | 445 kts | 227° |
| 2026-04-23 09:38 | -35.50484 | 148.84595 | 37415 ft | 446 kts | 227° |
| 2026-04-23 09:38 | -35.52388 | 148.81596 | 37560 ft | 445 kts | 227° |
| 2026-04-23 09:39 | -35.54288 | 148.78603 | 37700 ft | 445 kts | 227° |
| 2026-04-23 09:39 | -35.56189 | 148.75605 | 37804 ft | 444 kts | 227° |
| 2026-04-23 09:39 | -35.58083 | 148.72616 | 37980 ft | 443 kts | 227° |
| 2026-04-23 09:39 | -35.59975 | 148.69626 | 38084 ft | 443 kts | 227° |
| 2026-04-23 09:40 | -35.61866 | 148.66637 | 38195 ft | 443 kts | 227° |
| 2026-04-23 09:40 | -35.63758 | 148.63644 | 38304 ft | 443 kts | 227° |
| 2026-04-23 09:40 | -35.65644 | 148.60656 | 38415 ft | 443 kts | 227° |
| 2026-04-23 09:41 | -35.69420 | 148.54669 | 38470 ft | 442 kts | 227° |
| 2026-04-23 09:41 | -35.73187 | 148.48684 | 38470 ft | 442 kts | 227° |
| 2026-04-23 09:42 | -35.76943 | 148.42708 | 38468 ft | 441 kts | 227° |
| 2026-04-23 09:42 | -35.80667 | 148.36775 | 38471 ft | 441 kts | 227° |
| 2026-04-23 09:43 | -35.84408 | 148.30795 | 38456 ft | 440 kts | 227° |
| 2026-04-23 09:43 | -35.88147 | 148.24813 | 38451 ft | 440 kts | 227° |
| 2026-04-23 09:44 | -35.91881 | 148.18829 | 38435 ft | 440 kts | 227° |
| 2026-04-23 09:44 | -35.95604 | 148.12851 | 38438 ft | 439 kts | 227° |
| 2026-04-23 09:45 | -35.99318 | 148.06879 | 38436 ft | 439 kts | 227° |
| 2026-04-23 09:45 | -36.03031 | 148.00897 | 38426 ft | 439 kts | 227° |
| 2026-04-23 09:46 | -36.06739 | 147.94914 | 38426 ft | 439 kts | 227° |
| 2026-04-23 09:46 | -36.10445 | 147.88922 | 38421 ft | 438 kts | 227° |
| 2026-04-23 09:47 | -36.14143 | 147.82929 | 38421 ft | 438 kts | 227° |
| 2026-04-23 09:47 | -36.17838 | 147.76939 | 38420 ft | 438 kts | 227° |
| 2026-04-23 09:48 | -36.21529 | 147.70944 | 38420 ft | 438 kts | 227° |
| 2026-04-23 09:48 | -36.25221 | 147.64938 | 38391 ft | 438 kts | 227° |
| 2026-04-23 09:49 | -36.28905 | 147.58928 | 38409 ft | 438 kts | 227° |
| 2026-04-23 09:49 | -36.32583 | 147.52919 | 38411 ft | 437 kts | 227° |
| 2026-04-23 09:50 | -36.36267 | 147.46892 | 38413 ft | 438 kts | 227° |
| 2026-04-23 09:50 | -36.39947 | 147.40856 | 38424 ft | 438 kts | 227° |
| 2026-04-23 09:51 | -36.43625 | 147.34813 | 38407 ft | 438 kts | 227° |
| 2026-04-23 09:51 | -36.47289 | 147.28782 | 38412 ft | 432 kts | 227° |
| 2026-04-23 09:51 | -36.49060 | 147.25855 | 38411 ft | 417 kts | 227° |
| 2026-04-23 09:52 | -36.50784 | 147.23007 | 38414 ft | 410 kts | 227° |
| 2026-04-23 09:52 | -36.54231 | 147.17334 | 38414 ft | 418 kts | 227° |
| 2026-04-23 09:53 | -36.57718 | 147.11572 | 38414 ft | 416 kts | 227° |
| 2026-04-23 09:53 | -36.61189 | 147.05819 | 38413 ft | 416 kts | 227° |
| 2026-04-23 09:54 | -36.64657 | 147.00065 | 38150 ft | 415 kts | 227° |
| 2026-04-23 09:54 | -36.66391 | 146.97185 | 37886 ft | 416 kts | 227° |
| 2026-04-23 09:54 | -36.68132 | 146.94292 | 37619 ft | 417 kts | 227° |
| 2026-04-23 09:54 | -36.69876 | 146.91390 | 37350 ft | 418 kts | 227° |
| 2026-04-23 09:55 | -36.71615 | 146.88492 | 37090 ft | 418 kts | 227° |
| 2026-04-23 09:55 | -36.73360 | 146.85583 | 36835 ft | 419 kts | 227° |
| 2026-04-23 09:55 | -36.75106 | 146.82670 | 36556 ft | 420 kts | 228° |
| 2026-04-23 09:55 | -36.76858 | 146.79745 | 36301 ft | 421 kts | 228° |
| 2026-04-23 09:56 | -36.78612 | 146.76815 | 36057 ft | 422 kts | 228° |
| 2026-04-23 09:56 | -36.80365 | 146.73883 | 35807 ft | 422 kts | 228° |
| 2026-04-23 09:56 | -36.82122 | 146.70944 | 35554 ft | 423 kts | 228° |
| 2026-04-23 09:56 | -36.83881 | 146.67996 | 35127 ft | 425 kts | 228° |
| 2026-04-23 09:57 | -36.85660 | 146.65013 | 34275 ft | 432 kts | 228° |
| 2026-04-23 09:57 | -36.87459 | 146.61996 | 33471 ft | 432 kts | 229° |
| 2026-04-23 09:57 | -36.89250 | 146.58983 | 32695 ft | 431 kts | 229° |
| 2026-04-23 09:57 | -36.91038 | 146.55974 | 31902 ft | 431 kts | 229° |
| 2026-04-23 09:58 | -36.92820 | 146.52973 | 31320 ft | 427 kts | 229° |
| 2026-04-23 09:58 | -36.94576 | 146.50012 | 30750 ft | 422 kts | 229° |
| 2026-04-23 09:58 | -36.96315 | 146.47081 | 30133 ft | 418 kts | 229° |
| 2026-04-23 09:58 | -36.98030 | 146.44187 | 29568 ft | 412 kts | 229° |
| 2026-04-23 09:59 | -36.99722 | 146.41329 | 29016 ft | 406 kts | 229° |
| 2026-04-23 09:59 | -37.01390 | 146.38510 | 28475 ft | 400 kts | 230° |
| 2026-04-23 09:59 | -37.03034 | 146.35727 | 27934 ft | 395 kts | 230° |
| 2026-04-23 09:59 | -37.04661 | 146.32973 | 27405 ft | 391 kts | 230° |
| 2026-04-23 10:00 | -37.06271 | 146.30247 | 26866 ft | 387 kts | 230° |
| 2026-04-23 10:00 | -37.07867 | 146.27541 | 26349 ft | 390 kts | 230° |
| 2026-04-23 10:00 | -37.09536 | 146.24721 | 25805 ft | 415 kts | 230° |
| 2026-04-23 10:00 | -37.11278 | 146.21770 | 25224 ft | 424 kts | 231° |
| 2026-04-23 10:01 | -37.13030 | 146.18792 | 24596 ft | 426 kts | 231° |
| 2026-04-23 10:01 | -37.14779 | 146.15811 | 24020 ft | 423 kts | 231° |
| 2026-04-23 10:01 | -37.16510 | 146.12857 | 23420 ft | 416 kts | 231° |
| 2026-04-23 10:01 | -37.18208 | 146.09958 | 22852 ft | 409 kts | 231° |
| 2026-04-23 10:02 | -37.19878 | 146.07106 | 22290 ft | 402 kts | 232° |
| 2026-04-23 10:02 | -37.21519 | 146.04303 | 21732 ft | 396 kts | 232° |
| 2026-04-23 10:02 | -37.23135 | 146.01541 | 21187 ft | 390 kts | 232° |
| 2026-04-23 10:02 | -37.24727 | 145.98817 | 20637 ft | 385 kts | 232° |
| 2026-04-23 10:03 | -37.26300 | 145.96123 | 20105 ft | 380 kts | 232° |
| 2026-04-23 10:03 | -37.27837 | 145.93491 | 19578 ft | 376 kts | 232° |
| 2026-04-23 10:03 | -37.29359 | 145.90880 | 19057 ft | 372 kts | 232° |
| 2026-04-23 10:03 | -37.30899 | 145.88237 | 18495 ft | 369 kts | 232° |
| 2026-04-23 10:04 | -37.32385 | 145.85684 | 17972 ft | 364 kts | 232° |
| 2026-04-23 10:04 | -37.33870 | 145.83131 | 17457 ft | 360 kts | 232° |
| 2026-04-23 10:04 | -37.35334 | 145.80611 | 16953 ft | 355 kts | 233° |
| 2026-04-23 10:04 | -37.36781 | 145.78119 | 16443 ft | 351 kts | 232° |
| 2026-04-23 10:05 | -37.38219 | 145.75649 | 15948 ft | 348 kts | 233° |
| 2026-04-23 10:05 | -37.39639 | 145.73203 | 15451 ft | 345 kts | 233° |
| 2026-04-23 10:05 | -37.41046 | 145.70777 | 14972 ft | 343 kts | 233° |
| 2026-04-23 10:05 | -37.42450 | 145.68354 | 14491 ft | 341 kts | 233° |
| 2026-04-23 10:06 | -37.43842 | 145.65950 | 13979 ft | 339 kts | 233° |
| 2026-04-23 10:06 | -37.45222 | 145.63566 | 13491 ft | 335 kts | 233° |
| 2026-04-23 10:06 | -37.46585 | 145.61214 | 13013 ft | 332 kts | 233° |
| 2026-04-23 10:06 | -37.47947 | 145.58871 | 12553 ft | 329 kts | 233° |
| 2026-04-23 10:07 | -37.49293 | 145.56556 | 12090 ft | 326 kts | 233° |
| 2026-04-23 10:07 | -37.50630 | 145.54256 | 11620 ft | 324 kts | 233° |
| 2026-04-23 10:07 | -37.51956 | 145.51972 | 11126 ft | 323 kts | 233° |
| 2026-04-23 10:07 | -37.53300 | 145.49660 | 10375 ft | 331 kts | 233° |
| 2026-04-23 10:08 | -37.54643 | 145.47345 | 10118 ft | 321 kts | 234° |
| 2026-04-23 10:08 | -37.55930 | 145.45122 | 9980 ft | 307 kts | 233° |
| 2026-04-23 10:08 | -37.57168 | 145.42977 | 9709 ft | 299 kts | 233° |
| 2026-04-23 10:09 | -37.59900 | 145.39252 | 9404 ft | 290 kts | 206° |
| 2026-04-23 10:09 | -37.61804 | 145.38468 | 9104 ft | 288 kts | 192° |
| 2026-04-23 10:09 | -37.63752 | 145.37896 | 8730 ft | 287 kts | 192° |
| 2026-04-23 10:09 | -37.65692 | 145.37327 | 8326 ft | 286 kts | 192° |
| 2026-04-23 10:10 | -37.67624 | 145.36761 | 7938 ft | 284 kts | 192° |
| 2026-04-23 10:10 | -37.69547 | 145.36197 | 7527 ft | 283 kts | 192° |
| 2026-04-23 10:10 | -37.71448 | 145.35567 | 7134 ft | 282 kts | 202° |
| 2026-04-23 10:10 | -37.73142 | 145.34324 | 6750 ft | 282 kts | 212° |
| 2026-04-23 10:11 | -37.74776 | 145.32970 | 6341 ft | 281 kts | 212° |
| 2026-04-23 10:11 | -37.76408 | 145.31619 | 5962 ft | 279 kts | 212° |
| 2026-04-23 10:11 | -37.78027 | 145.30281 | 5593 ft | 277 kts | 212° |
| 2026-04-23 10:11 | -37.79636 | 145.28950 | 5236 ft | 275 kts | 212° |
| 2026-04-23 10:12 | -37.81222 | 145.27635 | 5136 ft | 277 kts | 212° |
| 2026-04-23 10:12 | -37.82837 | 145.26298 | 5031 ft | 276 kts | 212° |
| 2026-04-23 10:12 | -37.84436 | 145.24978 | 4999 ft | 274 kts | 212° |
| 2026-04-23 10:12 | -37.86014 | 145.23611 | 4956 ft | 274 kts | 220° |
| 2026-04-23 10:13 | -37.87154 | 145.21698 | 4668 ft | 275 kts | 241° |
| 2026-04-23 10:13 | -37.88051 | 145.19558 | 4318 ft | 274 kts | 242° |
| 2026-04-23 10:13 | -37.88935 | 145.17441 | 3969 ft | 271 kts | 242° |
| 2026-04-23 10:13 | -37.89811 | 145.15335 | 3630 ft | 269 kts | 243° |
| 2026-04-23 10:14 | -37.90277 | 145.13076 | 3246 ft | 267 kts | 271° |
| 2026-04-23 10:14 | -37.89873 | 145.10833 | 3142 ft | 267 kts | 291° |
| 2026-04-23 10:14 | -37.89197 | 145.08629 | 3042 ft | 267 kts | 292° |
| 2026-04-23 10:14 | -37.88529 | 145.06450 | 2993 ft | 266 kts | 292° |
| 2026-04-23 10:15 | -37.87861 | 145.04275 | 2992 ft | 266 kts | 292° |
| 2026-04-23 10:15 | -37.87187 | 145.02084 | 2992 ft | 266 kts | 292° |
| 2026-04-23 10:15 | -37.86517 | 144.99900 | 2997 ft | 267 kts | 292° |
| 2026-04-23 10:15 | -37.85851 | 144.97706 | 2993 ft | 267 kts | 292° |
| 2026-04-23 10:16 | -37.85189 | 144.95514 | 2992 ft | 267 kts | 292° |
| 2026-04-23 10:16 | -37.84525 | 144.93326 | 2993 ft | 267 kts | 292° |
| 2026-04-23 10:16 | -37.83856 | 144.91140 | 2992 ft | 266 kts | 295° |
| 2026-04-23 10:16 | -37.82773 | 144.89281 | 2994 ft | 264 kts | 322° |
| 2026-04-23 10:17 | -37.81151 | 144.88231 | 2997 ft | 263 kts | 341° |
| 2026-04-23 10:17 | -37.79436 | 144.87459 | 2994 ft | 261 kts | 342° |
| 2026-04-23 10:17 | -37.77715 | 144.86719 | 2680 ft | 258 kts | 343° |
| 2026-04-23 10:17 | -37.76058 | 144.86152 | 2378 ft | 238 kts | 348° |
| 2026-04-23 10:18 | -37.74994 | 144.85808 | 2002 ft | 240 kts | 341° |
| 2026-04-23 10:18 | -37.72923 | 144.85017 | 1271 ft | 224 kts | 346° |
| 2026-04-23 10:18 | -37.71413 | 144.84623 | 990 ft | 211 kts | 350° |
| 2026-04-23 10:18 | -37.70526 | 144.84435 | 849 ft | 182 kts | 351° |
| 2026-04-23 10:19 | -37.69381 | 144.84233 | 573 ft | 153 kts | 351° |
| 2026-04-23 10:19 | -37.68387 | 144.84074 | 339 ft | 134 kts | 352° |
| 2026-04-23 10:19 | -37.67625 | 144.83921 | 359 ft | 84 kts | 351° |
| 2026-04-23 10:19 | -37.67282 | 144.83858 | 373 ft | 29 kts | 351° |
| 2026-04-23 10:20 | -37.67096 | 144.83831 | 379 ft | 26 kts | 2° |
| 2026-04-23 10:20 | -37.66925 | 144.83862 | 383 ft | 24 kts | 15° |
| 2026-04-23 10:20 | -37.66746 | 144.83976 | 382 ft | 21 kts | 51° |
| 2026-04-23 10:20 | -37.66723 | 144.84092 | 379 ft | 22 kts | 102° |
| 2026-04-23 10:21 | -37.66847 | 144.84204 | 374 ft | 16 kts | 170° |
| 2026-04-23 10:21 | -37.66857 | 144.84206 | 374 ft | 0 kts | 171° |
| 2026-04-23 10:22 | -37.66858 | 144.84206 | 374 ft | 1 kts | 171° |
| 2026-04-23 10:23 | -37.66899 | 144.84214 | 373 ft | 12 kts | 171° |
| 2026-04-23 10:23 | -37.67019 | 144.84237 | 371 ft | 23 kts | 172° |
| 2026-04-23 10:23 | -37.67210 | 144.84271 | 367 ft | 32 kts | 172° |
| 2026-04-23 10:23 | -37.67458 | 144.84316 | 360 ft | 40 kts | 169° |
| 2026-04-23 10:24 | -37.67692 | 144.84471 | 359 ft | 37 kts | 159° |
| 2026-04-23 10:24 | -37.67741 | 144.84678 | 356 ft | 22 kts | 38° |
| 2026-04-23 10:24 | -37.67659 | 144.84666 | 355 ft | 15 kts | 320° |
| 2026-04-23 10:24 | -37.67562 | 144.84569 | 357 ft | 19 kts | 324° |
| 2026-04-23 10:25 | -37.67472 | 144.84471 | 359 ft | 15 kts | 308° |
| 2026-04-23 10:25 | -37.67434 | 144.84466 | 364 ft | 2 kts | 65° |
| 2026-04-23 10:25 | -37.67425 | 144.84506 | 358 ft | 8 kts | 73° |
| 2026-04-23 10:25 | -37.67414 | 144.84597 | 359 ft | 12 kts | 96° |
| 2026-04-23 10:26 | -37.67461 | 144.84682 | 356 ft | 14 kts | 109° |
| 2026-04-23 10:26 | -37.67509 | 144.84759 | 356 ft | 6 kts | 185° |
| 2026-04-23 10:26 | -37.67531 | 144.84754 | 354 ft | 0 kts | 169° |